createdAt,value
2023-01-10T00:00:56.517Z,8.18
2023-01-10T00:05:57.894Z,8.24
2023-01-10T00:11:19.244Z,8.34
2023-01-10T00:16:21.278Z,8.40
2023-01-10T00:21:22.635Z,8.45
2023-01-10T00:26:23.943Z,8.61
2023-01-10T00:31:25.327Z,8.69
2023-01-10T00:36:26.643Z,8.63
2023-01-10T00:41:46.480Z,8.56
2023-01-10T00:46:47.877Z,8.49
2023-01-10T00:51:49.518Z,8.53
2023-01-10T00:56:50.924Z,8.44
2023-01-10T01:01:52.760Z,8.48
2023-01-10T01:06:54.142Z,8.32
2023-01-10T01:11:56.470Z,8.38
2023-01-10T01:16:57.875Z,8.25
2023-01-10T01:21:59.206Z,8.33
2023-01-10T01:27:00.571Z,8.25
2023-01-10T01:32:01.890Z,8.18
2023-01-10T01:37:03.363Z,8.17
2023-01-10T01:42:06.245Z,8.05
2023-01-10T01:47:21.837Z,8.11
2023-01-10T01:52:29.534Z,8.12
2023-01-10T01:57:32.920Z,8.17
2023-01-10T02:02:53.998Z,8.18
2023-01-10T02:08:03.380Z,8.27
2023-01-10T02:13:08.130Z,8.22
2023-01-10T02:18:10.043Z,8.28
2023-01-10T02:23:45.473Z,8.31
2023-01-10T02:29:18.888Z,8.40
2023-01-10T02:34:28.984Z,8.41
2023-01-10T02:39:42.941Z,8.35
2023-01-10T02:45:14.779Z,8.34
2023-01-10T02:50:43.040Z,8.34
2023-01-10T02:56:12.611Z,8.40
2023-01-10T03:01:47.091Z,8.32
2023-01-10T03:07:16.530Z,8.31
2023-01-10T03:12:35.780Z,8.24
2023-01-10T03:17:40.260Z,8.26
2023-01-10T03:22:43.137Z,8.24
2023-01-10T03:27:56.577Z,8.27
2023-01-10T03:32:59.908Z,8.32
2023-01-10T03:38:13.765Z,8.39
2023-01-10T03:43:40.075Z,8.29
2023-01-10T03:48:44.637Z,8.34
2023-01-10T03:53:46.139Z,8.28
2023-01-10T03:58:47.762Z,8.15
2023-01-10T04:03:50.425Z,8.06
2023-01-10T04:08:51.886Z,8.05
2023-01-10T04:13:53.792Z,7.93
2023-01-10T04:18:55.220Z,7.86
2023-01-10T04:23:56.530Z,7.79
2023-01-10T04:28:57.873Z,7.73
2023-01-10T04:33:59.975Z,7.72
2023-01-10T04:39:01.324Z,7.57
2023-01-10T04:44:02.767Z,7.53
2023-01-10T04:49:04.267Z,7.54
2023-01-10T04:54:05.653Z,7.43
2023-01-10T04:59:07.020Z,7.37
2023-01-10T05:04:08.808Z,7.38
2023-01-10T05:09:10.323Z,7.37
2023-01-10T05:14:11.661Z,7.24
2023-01-10T05:19:13.099Z,7.20
2023-01-10T05:24:14.431Z,7.15
2023-01-10T05:29:15.741Z,7.08
2023-01-10T05:34:17.059Z,7.08
2023-01-10T05:39:18.499Z,7.10
2023-01-10T05:44:19.899Z,7.08
2023-01-10T05:49:21.248Z,7.05
2023-01-10T05:54:22.731Z,7.03
2023-01-10T05:59:31.081Z,7.08
2023-01-10T06:04:32.484Z,7.10
2023-01-10T06:09:33.837Z,7.18
2023-01-10T06:14:35.194Z,7.20
2023-01-10T06:19:36.618Z,7.28
2023-01-10T06:24:37.949Z,7.33
2023-01-10T06:29:39.267Z,7.39
2023-01-10T06:34:40.601Z,7.45
2023-01-10T06:39:42.016Z,7.46
2023-01-10T06:44:43.372Z,7.56
2023-01-10T06:49:44.735Z,7.54
2023-01-10T06:54:46.123Z,7.58
2023-01-10T06:59:47.475Z,7.62
2023-01-10T07:04:49.097Z,7.72
2023-01-10T07:09:50.832Z,7.78
2023-01-10T07:14:52.216Z,7.78
2023-01-10T07:19:53.593Z,7.70
2023-01-10T07:24:54.972Z,7.66
2023-01-10T07:29:56.318Z,7.62
2023-01-10T07:34:57.694Z,7.65
2023-01-10T07:39:59.001Z,7.65
2023-01-10T07:45:00.325Z,7.47
2023-01-10T07:50:01.655Z,7.49
2023-01-10T07:55:03.141Z,7.46
2023-01-10T08:00:04.817Z,7.42
2023-01-10T08:05:06.381Z,7.36
2023-01-10T08:10:08.391Z,7.29
2023-01-10T08:15:10.224Z,7.27
2023-01-10T08:20:11.982Z,7.18
2023-01-10T08:25:13.304Z,7.21
2023-01-10T08:30:15.117Z,7.28
2023-01-10T08:35:16.605Z,7.22
2023-01-10T08:40:18.066Z,7.26
2023-01-10T08:45:19.405Z,7.28
2023-01-10T08:50:21.001Z,7.29
2023-01-10T08:55:22.334Z,7.40
2023-01-10T09:00:23.854Z,7.33
2023-01-10T09:05:28.425Z,7.37
2023-01-10T09:10:30.350Z,7.45
2023-01-10T09:15:34.943Z,7.53
2023-01-10T09:20:38.798Z,7.58
2023-01-10T09:25:40.105Z,7.73
2023-01-10T09:30:41.642Z,7.88
2023-01-10T09:35:43.629Z,8.00
2023-01-10T09:41:17.304Z,8.04
2023-01-10T09:46:55.959Z,8.07
2023-01-10T09:51:59.194Z,8.19
2023-01-10T09:57:01.955Z,8.30
2023-01-10T10:02:27.373Z,8.38
2023-01-10T10:07:28.724Z,8.46
2023-01-10T10:13:00.631Z,8.59
2023-01-10T10:18:10.564Z,8.72
2023-01-10T10:23:27.521Z,8.82
2023-01-10T10:28:46.586Z,9.00
2023-01-10T10:34:15.980Z,9.13
2023-01-10T10:39:40.540Z,9.37
2023-01-10T10:44:49.220Z,9.42
2023-01-10T10:50:04.599Z,9.33
2023-01-10T10:55:07.471Z,9.32
2023-01-10T11:00:15.430Z,9.46
2023-01-10T11:05:23.633Z,9.40
2023-01-10T11:10:38.256Z,9.48
2023-01-10T11:15:43.415Z,9.51
2023-01-10T11:21:00.167Z,9.49
2023-01-10T11:26:02.223Z,9.50
2023-01-10T11:31:04.021Z,9.50
2023-01-10T11:36:08.766Z,9.63
2023-01-10T11:41:19.168Z,9.68
2023-01-10T11:46:25.637Z,9.83
2023-01-10T11:51:35.546Z,9.80
2023-01-10T11:56:39.928Z,9.76
2023-01-10T12:01:46.893Z,9.81
2023-01-10T12:06:50.855Z,9.88
2023-01-10T12:12:01.979Z,9.73
2023-01-10T12:17:04.028Z,9.70
2023-01-10T12:22:07.905Z,9.75
2023-01-10T12:27:12.662Z,9.83
2023-01-10T12:32:22.446Z,9.79
2023-01-10T12:37:42.644Z,9.83
2023-01-10T12:43:19.710Z,9.85
2023-01-10T12:48:50.369Z,9.89
2023-01-10T12:53:58.907Z,9.96
2023-01-10T12:59:04.752Z,9.95
2023-01-10T13:04:10.697Z,9.92
2023-01-10T13:09:22.157Z,9.95
2023-01-10T13:14:47.553Z,9.95
2023-01-10T13:20:16.958Z,9.90
2023-01-10T13:25:27.981Z,9.83
2023-01-10T13:30:40.769Z,9.85
2023-01-10T13:35:44.161Z,9.90
2023-01-10T13:41:30.246Z,9.99
2023-01-10T13:46:31.611Z,9.89
2023-01-10T13:51:33.077Z,9.70
2023-01-10T13:56:40.717Z,9.63
2023-01-10T14:02:01.435Z,9.64
2023-01-10T14:07:24.543Z,9.63
2023-01-10T14:12:37.216Z,9.68
2023-01-10T14:17:40.025Z,9.72
2023-01-10T14:22:56.595Z,9.68
2023-01-10T14:27:58.946Z,9.70
2023-01-10T14:33:19.357Z,9.68
2023-01-10T14:38:32.531Z,9.70
2023-01-10T14:43:45.326Z,9.74
2023-01-10T14:48:51.389Z,9.66
2023-01-10T14:54:04.730Z,9.63
2023-01-10T14:59:18.258Z,9.57
2023-01-10T15:04:22.967Z,9.45
2023-01-10T15:09:25.236Z,9.40
2023-01-10T15:14:28.063Z,9.32
2023-01-10T15:19:32.919Z,9.20
2023-01-10T15:24:36.387Z,9.17
2023-01-10T15:29:44.500Z,9.10
2023-01-10T15:34:49.218Z,9.09
2023-01-10T15:39:51.159Z,9.09
2023-01-10T15:44:53.301Z,9.08
2023-01-10T15:49:54.817Z,9.03
2023-01-10T15:54:57.005Z,9.07
2023-01-10T16:00:00.056Z,9.03
2023-01-10T16:05:13.747Z,9.11
2023-01-10T16:10:27.726Z,9.07
2023-01-10T16:15:35.392Z,9.09
2023-01-10T16:20:39.590Z,9.06
2023-01-10T16:25:45.600Z,9.04
2023-01-10T16:30:47.925Z,9.03
2023-01-10T16:35:54.435Z,9.13
2023-01-10T16:41:21.252Z,9.12
2023-01-10T16:46:23.085Z,8.99
2023-01-10T16:51:26.202Z,8.95
2023-01-10T16:56:28.910Z,9.04
2023-01-10T17:01:39.056Z,9.01
2023-01-10T17:06:41.537Z,9.00
2023-01-10T17:11:43.045Z,8.99
2023-01-10T17:16:44.430Z,8.93
2023-01-10T17:21:45.948Z,8.95
2023-01-10T17:26:47.354Z,8.91
2023-01-10T17:31:48.854Z,8.91
2023-01-10T17:36:50.536Z,8.91
2023-01-10T17:41:51.947Z,8.89
2023-01-10T17:46:56.767Z,8.95
2023-01-10T17:51:58.754Z,8.93
2023-01-10T17:57:00.220Z,8.95
2023-01-10T18:02:02.033Z,8.96
2023-01-10T18:07:03.510Z,8.97
2023-01-10T18:12:05.484Z,9.05
2023-01-10T18:17:10.501Z,8.95
2023-01-10T18:22:31.474Z,8.98
2023-01-10T18:27:32.866Z,9.00
2023-01-10T18:32:34.467Z,9.06
2023-01-10T18:37:35.874Z,9.06
2023-01-10T18:42:37.673Z,9.02
2023-01-10T18:47:39.005Z,8.97
2023-01-10T18:52:40.348Z,9.02
2023-01-10T18:57:41.909Z,8.97
2023-01-10T19:02:43.392Z,8.82
2023-01-10T19:07:44.828Z,8.71
2023-01-10T19:12:46.217Z,8.57
2023-01-10T19:17:47.564Z,8.40
2023-01-10T19:22:48.949Z,8.33
2023-01-10T19:27:50.326Z,8.28
2023-01-10T19:32:51.678Z,8.18
2023-01-10T19:37:53.079Z,7.98
2023-01-10T19:42:54.667Z,7.80
2023-01-10T19:47:55.991Z,7.55
2023-01-10T19:52:57.336Z,7.52
2023-01-10T19:58:00.070Z,7.37
2023-01-10T20:03:01.572Z,7.28
2023-01-10T20:08:04.840Z,7.19
2023-01-10T20:13:06.931Z,7.14
2023-01-10T20:18:09.302Z,7.06
2023-01-10T20:23:12.269Z,7.01
2023-01-10T20:28:13.673Z,6.86
2023-01-10T20:33:15.053Z,6.84
2023-01-10T20:38:16.523Z,6.86
2023-01-10T20:43:18.125Z,6.87
2023-01-10T20:48:19.989Z,6.89
2023-01-10T20:53:21.548Z,6.96
2023-01-10T20:58:22.906Z,6.96
2023-01-10T21:03:24.548Z,7.01
2023-01-10T21:08:26.728Z,7.01
2023-01-10T21:13:28.095Z,7.00
2023-01-10T21:18:40.982Z,7.08
2023-01-10T21:23:42.430Z,7.09
2023-01-10T21:28:47.230Z,7.14
2023-01-10T21:33:49.350Z,7.16
2023-01-10T21:38:50.925Z,7.17
2023-01-10T21:43:52.279Z,7.12
2023-01-10T21:48:53.595Z,7.11
2023-01-10T21:53:54.937Z,7.12
2023-01-10T21:58:56.349Z,7.12
2023-01-10T22:03:57.790Z,7.22
2023-01-10T22:08:59.214Z,7.23
2023-01-10T22:14:00.646Z,7.30
2023-01-10T22:19:02.013Z,7.40
2023-01-10T22:24:03.633Z,7.42
2023-01-10T22:29:04.975Z,7.45
2023-01-10T22:34:06.301Z,7.47
2023-01-10T22:39:08.498Z,7.50
2023-01-10T22:44:18.218Z,7.54
2023-01-10T22:49:20.045Z,7.55
2023-01-10T22:54:21.407Z,7.54
2023-01-10T22:59:22.724Z,7.56
2023-01-10T23:04:24.353Z,7.54
2023-01-10T23:09:25.724Z,7.54
2023-01-10T23:14:27.120Z,7.57
2023-01-10T23:19:28.419Z,7.59
2023-01-10T23:24:29.752Z,7.63
2023-01-10T23:29:31.065Z,7.65
2023-01-10T23:34:32.389Z,7.73
2023-01-10T23:39:33.709Z,7.82
2023-01-10T23:44:35.056Z,7.87
2023-01-10T23:49:36.399Z,7.87
2023-01-10T23:54:37.715Z,7.91
2023-01-10T23:59:39.079Z,7.98
